This is the latest recevied weather packets stored in our database for station/object IZ5MJO-13. If no packets are shown the sender has not sent any weather packets the latest 10 day(s).
| Time | Temp. | Humidity | Pressure | Rain* | Wind** | Luminosity | Snow |
|---|---|---|---|---|---|---|---|
| 1787595976 | 27.78° C | 35% | 1004.8 hPa | - | - | - | - |
| 1787595520 | 27.78° C | 36% | 1005 hPa | - | - | - | - |
| 1787595514 | 28.33° C | 35% | 1005.2 hPa | - | - | - | - |
| 1787595505 | 28.89° C | 36% | 1005 hPa | - | - | - | - |
| 1787595475 | 29.44° C | 34% | 1004.9 hPa | - | - | - | - |
| 1787595457 | 30° C | 34% | 1004.9 hPa | - | - | - | - |
| 1787595433 | 31.11° C | 33% | 1004.9 hPa | - | - | - | - |
| 1787595422 | 33.89° C | 30% | 1004.7 hPa | - | - | - | - |
| 1787595411 | 34.44° C | 29% | 1004.8 hPa | - | - | - | - |
| 1787595397 | 35° C | 28% | 1004.9 hPa | - | - | - | - |
| 1787595389 | 35.56° C | 27% | 1005 hPa | - | - | - | - |
| 1787595372 | 36.11° C | 26% | 1005 hPa | - | - | - | - |
| 1787595358 | 36.67° C | 26% | 1005.1 hPa | - | - | - | - |
| 1787595342 | 36.67° C | 25% | 1005.3 hPa | - | - | - | - |
| 1787595075 | 27.78° C | 36% | 1005 hPa | - | - | - | - |
| 1787594175 | 28.33° C | 35% | 1005.2 hPa | - | - | - | - |
| 1787593274 | 28.89° C | 36% | 1005 hPa | - | - | - | - |
| 1787592374 | 29.44° C | 34% | 1004.9 hPa | - | - | - | - |
| 1787591474 | 30° C | 34% | 1004.9 hPa | - | - | - | - |
| 1787591016 | 36.67° C | 25% | 1005.4 hPa | - | - | - | - |
| 1787591002 | 38.89° C | 26% | 1005.1 hPa | - | - | - | - |
| 1787590995 | 38.89° C | 26% | 1005.2 hPa | - | - | - | - |
| 1787590989 | 38.89° C | 26% | 1005.4 hPa | - | - | - | - |
| 1787590978 | 38.89° C | 27% | 1005.6 hPa | - | - | - | - |
| 1787590971 | 38.33° C | 28% | 1005.6 hPa | - | - | - | - |
* Rain since midnight (hover to see other rain measurements)
** Current wind speed in m/s (hover to see current wind gust speed)